createdAt,value
2022-08-19T00:01:14.628Z,6.07
2022-08-19T00:06:30.274Z,5.65
2022-08-19T00:11:32.980Z,6.55
2022-08-19T00:16:35.708Z,5.90
2022-08-19T00:21:42.276Z,6.80
2022-08-19T00:26:46.360Z,6.07
2022-08-19T00:31:50.672Z,6.75
2022-08-19T00:41:56.239Z,6.50
2022-08-19T00:47:01.057Z,6.50
2022-08-19T00:52:10.755Z,6.63
2022-08-19T00:57:17.676Z,6.88
2022-08-19T01:02:20.451Z,5.97
2022-08-19T01:07:23.919Z,6.38
2022-08-19T01:12:26.682Z,7.50
2022-08-19T01:17:29.400Z,6.57
2022-08-19T01:22:35.227Z,6.80
2022-08-19T01:27:43.962Z,6.28
2022-08-19T01:32:48.163Z,6.47
2022-08-19T01:38:01.777Z,6.63
2022-08-19T01:43:05.055Z,6.33
2022-08-19T01:48:08.173Z,6.63
2022-08-19T01:53:12.325Z,7.00
2022-08-19T01:58:22.307Z,6.82
2022-08-19T02:03:24.958Z,6.70
2022-08-19T02:08:28.543Z,7.80
2022-08-19T02:13:31.287Z,7.57
2022-08-19T02:18:34.639Z,8.02
2022-08-19T02:23:37.688Z,7.80
2022-08-19T02:28:41.805Z,9.85
2022-08-19T02:33:46.503Z,6.95
2022-08-19T02:38:54.262Z,7.60
2022-08-19T02:44:29.050Z,7.72
2022-08-19T02:49:21.613Z,7.85
2022-08-19T02:54:24.308Z,7.03
2022-08-19T02:59:27.444Z,6.43
2022-08-19T03:04:30.828Z,7.95
2022-08-19T03:09:33.419Z,6.90
2022-08-19T03:14:36.409Z,7.45
2022-08-19T03:19:39.284Z,7.00
2022-08-19T03:24:41.995Z,6.85
2022-08-19T03:29:45.005Z,8.82
2022-08-19T03:34:47.688Z,8.95
2022-08-19T03:39:50.342Z,8.98
2022-08-19T03:44:53.589Z,8.02
2022-08-19T03:49:56.504Z,8.32
2022-08-19T03:54:59.230Z,6.47
2022-08-19T04:00:03.941Z,6.72
2022-08-19T04:05:16.126Z,8.73
2022-08-19T04:10:18.767Z,9.35
2022-08-19T04:15:21.848Z,7.60
2022-08-19T04:20:24.457Z,7.53
2022-08-19T04:25:27.073Z,7.60
2022-08-19T04:30:29.637Z,9.52
2022-08-19T04:35:41.851Z,8.68
2022-08-19T04:41:06.125Z,9.48
2022-08-19T04:46:16.018Z,7.53
2022-08-19T04:51:36.451Z,8.68
2022-08-19T04:56:41.328Z,9.68
2022-08-19T05:01:44.438Z,8.00
2022-08-19T05:06:49.548Z,9.73
2022-08-19T05:11:54.558Z,9.73
2022-08-19T05:17:25.606Z,10.18
2022-08-19T05:22:35.566Z,10.70
2022-08-19T05:27:38.337Z,11.90
2022-08-19T05:32:41.612Z,13.10
2022-08-19T05:37:44.190Z,10.75
2022-08-19T05:42:46.981Z,11.70
2022-08-19T05:47:59.339Z,11.60
2022-08-19T05:53:01.946Z,10.70
2022-08-19T05:58:05.234Z,11.95
2022-08-19T06:03:12.459Z,15.35
2022-08-19T06:08:15.858Z,18.10
2022-08-19T06:13:20.402Z,19.35
2022-08-19T06:18:23.014Z,17.75
2022-08-19T06:23:26.641Z,24.80
2022-08-19T06:28:29.300Z,27.03
2022-08-19T06:33:31.822Z,26.58
2022-08-19T06:38:34.799Z,25.70
2022-08-19T06:43:38.142Z,28.35
2022-08-19T06:48:45.902Z,29.92
2022-08-19T06:58:58.265Z,33.92
2022-08-19T07:04:02.525Z,44.90
2022-08-19T07:09:06.755Z,46.67
2022-08-19T07:14:18.962Z,43.25
2022-08-19T07:19:23.602Z,42.60
2022-08-19T07:24:27.917Z,43.25
2022-08-19T07:29:39.794Z,38.38
2022-08-19T07:34:42.406Z,45.05
2022-08-19T07:39:45.802Z,45.57
2022-08-19T07:44:50.658Z,45.90
2022-08-19T07:49:53.647Z,46.50
2022-08-19T07:54:58.258Z,49.28
2022-08-19T08:00:01.154Z,44.00
2022-08-19T08:05:23.603Z,49.15
2022-08-19T08:10:26.697Z,47.00
2022-08-19T08:15:29.397Z,47.50
2022-08-19T08:20:32.366Z,52.80
2022-08-19T08:25:36.434Z,50.83
2022-08-19T08:30:45.219Z,51.13
2022-08-19T08:35:48.571Z,37.90
2022-08-19T08:41:08.207Z,38.03
2022-08-19T08:46:31.609Z,31.23
2022-08-19T08:56:49.466Z,31.80
2022-08-19T09:01:54.438Z,24.60
2022-08-19T09:07:00.297Z,26.52
2022-08-19T09:12:15.652Z,29.08
2022-08-19T09:17:31.648Z,27.15
2022-08-19T09:22:34.927Z,27.35
2022-08-19T09:27:53.936Z,22.38
2022-08-19T09:32:56.793Z,22.80
2022-08-19T09:38:00.647Z,25.58
2022-08-19T09:43:03.438Z,24.38
2022-08-19T09:48:18.912Z,23.13
2022-08-19T09:53:25.364Z,20.05
2022-08-19T09:58:28.671Z,21.75
2022-08-19T10:03:32.967Z,21.20
2022-08-19T10:08:37.466Z,20.58
2022-08-19T10:13:40.297Z,21.33
2022-08-19T10:18:49.616Z,19.77
2022-08-19T10:23:55.682Z,17.33
2022-08-19T10:28:58.923Z,19.05
2022-08-19T10:34:02.253Z,20.50
2022-08-19T10:39:07.720Z,18.20
2022-08-19T10:44:14.271Z,17.83
2022-08-19T10:49:17.249Z,17.52
2022-08-19T10:54:24.320Z,19.95
2022-08-19T10:59:36.230Z,18.00
2022-08-19T11:04:40.190Z,13.20
2022-08-19T11:09:47.523Z,15.10
2022-08-19T11:14:51.069Z,17.38
2022-08-19T11:19:53.640Z,15.98
2022-08-19T11:24:56.616Z,12.88
2022-08-19T11:29:59.282Z,13.02
2022-08-19T11:35:02.001Z,15.00
2022-08-19T11:40:06.013Z,15.13
2022-08-19T11:45:09.117Z,16.73
2022-08-19T11:50:11.762Z,18.63
2022-08-19T11:55:15.357Z,13.82
2022-08-19T12:00:17.931Z,18.00
2022-08-19T12:05:20.512Z,19.92
2022-08-19T12:10:26.437Z,18.48
2022-08-19T12:15:37.052Z,16.65
2022-08-19T12:20:41.665Z,16.05
2022-08-19T12:25:50.991Z,19.17
2022-08-19T12:30:54.231Z,16.42
2022-08-19T12:36:02.222Z,16.15
2022-08-19T12:41:08.013Z,23.08
2022-08-19T12:46:11.803Z,16.23
2022-08-19T12:51:21.535Z,20.95
2022-08-19T12:56:24.126Z,17.30
2022-08-19T13:01:26.760Z,21.50
2022-08-19T13:06:31.111Z,26.10
2022-08-19T13:11:36.508Z,20.25
2022-08-19T13:16:41.482Z,24.55
2022-08-19T13:21:44.045Z,27.50
2022-08-19T13:26:46.865Z,22.35
2022-08-19T13:32:07.787Z,19.45
2022-08-19T13:37:10.370Z,21.35
2022-08-19T13:42:14.541Z,19.02
2022-08-19T13:47:37.136Z,20.90
2022-08-19T13:52:41.042Z,19.75
2022-08-19T13:57:43.731Z,18.90
2022-08-19T14:02:47.935Z,19.02
2022-08-19T14:07:50.777Z,17.33
2022-08-19T14:12:56.419Z,16.55
2022-08-19T14:17:59.443Z,18.95
2022-08-19T14:23:02.812Z,19.38
2022-08-19T14:28:05.898Z,17.17
2022-08-19T14:33:09.490Z,17.15
2022-08-19T14:38:17.622Z,20.50
2022-08-19T14:43:20.738Z,21.30
2022-08-19T14:48:23.425Z,25.95
2022-08-19T14:53:31.706Z,23.05
2022-08-19T14:58:37.417Z,23.70
2022-08-19T15:03:42.280Z,24.73
2022-08-19T15:08:45.839Z,24.08
2022-08-19T15:13:49.158Z,23.60
2022-08-19T15:18:53.709Z,22.70
2022-08-19T15:23:59.375Z,19.20
2022-08-19T15:29:03.624Z,18.40
2022-08-19T15:34:07.052Z,18.90
2022-08-19T15:39:10.332Z,17.25
2022-08-19T15:44:18.564Z,17.08
2022-08-19T15:49:21.185Z,16.75
2022-08-19T15:54:23.803Z,15.17
2022-08-19T15:59:47.244Z,16.63
2022-08-19T16:05:11.299Z,15.40
2022-08-19T16:10:27.420Z,16.25
2022-08-19T16:15:31.014Z,16.13
2022-08-19T16:20:35.693Z,14.60
2022-08-19T16:25:39.428Z,15.32
2022-08-19T16:35:46.834Z,13.93
2022-08-19T16:41:02.852Z,12.77
2022-08-19T16:46:05.630Z,12.67
2022-08-19T16:51:09.367Z,11.63
2022-08-19T16:56:12.951Z,11.60
2022-08-19T17:01:34.413Z,10.05
2022-08-19T17:06:39.586Z,9.60
2022-08-19T17:11:42.391Z,9.38
2022-08-19T17:16:45.127Z,11.53
2022-08-19T17:21:48.335Z,9.97
2022-08-19T17:26:51.238Z,12.60
2022-08-19T17:31:55.287Z,10.10
2022-08-19T17:36:59.847Z,12.20
2022-08-19T17:42:03.020Z,12.32
2022-08-19T17:47:05.802Z,11.50
2022-08-19T17:52:10.211Z,11.00
2022-08-19T17:57:14.110Z,12.80
2022-08-19T18:02:16.997Z,11.82
2022-08-19T18:07:24.399Z,11.05
2022-08-19T18:12:27.177Z,11.20
2022-08-19T18:17:30.317Z,11.80
2022-08-19T18:22:37.272Z,8.98
2022-08-19T18:27:42.420Z,9.65
2022-08-19T18:32:47.841Z,10.25
2022-08-19T18:37:50.456Z,9.38
2022-08-19T18:43:11.473Z,10.40
2022-08-19T18:48:32.473Z,10.73
2022-08-19T18:53:38.231Z,9.10
2022-08-19T18:58:41.356Z,9.27
2022-08-19T19:03:52.948Z,10.80
2022-08-19T19:08:55.867Z,9.80
2022-08-19T19:14:02.486Z,11.17
2022-08-19T19:19:07.567Z,11.10
2022-08-19T19:24:14.077Z,10.02
2022-08-19T19:29:18.263Z,10.68
2022-08-19T19:34:29.749Z,8.77
2022-08-19T19:39:45.086Z,10.15
2022-08-19T19:44:51.821Z,9.00
2022-08-19T19:55:18.667Z,8.07
2022-08-19T20:00:22.149Z,7.13
2022-08-19T20:05:25.084Z,6.97
2022-08-19T20:10:27.985Z,6.60
2022-08-19T20:15:32.260Z,6.35
2022-08-19T20:20:35.490Z,6.55
2022-08-19T20:25:39.029Z,6.50
2022-08-19T20:30:45.583Z,5.95
2022-08-19T20:35:49.481Z,5.05
2022-08-19T20:40:52.931Z,5.80
2022-08-19T20:45:57.131Z,5.72
2022-08-19T20:50:59.702Z,5.60
2022-08-19T20:56:02.630Z,5.20
2022-08-19T21:01:06.768Z,5.80
2022-08-19T21:06:11.108Z,5.82
2022-08-19T21:11:16.403Z,5.00
2022-08-19T21:16:23.506Z,5.50
2022-08-19T21:21:26.294Z,5.05
2022-08-19T21:26:29.414Z,5.43
2022-08-19T21:31:32.579Z,5.03
2022-08-19T21:36:35.459Z,6.73
2022-08-19T21:41:40.685Z,6.65
2022-08-19T21:46:50.381Z,10.13
2022-08-19T21:51:53.409Z,6.38
2022-08-19T21:56:56.097Z,7.38
2022-08-19T22:02:15.717Z,6.15
2022-08-19T22:07:22.501Z,7.25
2022-08-19T22:12:32.117Z,7.50
2022-08-19T22:17:35.612Z,7.22
2022-08-19T22:22:40.148Z,8.40
2022-08-19T22:27:43.488Z,6.70
2022-08-19T22:32:48.484Z,7.82
2022-08-19T22:37:59.748Z,7.72
2022-08-19T22:43:15.182Z,22.35
2022-08-19T22:48:19.893Z,25.90
2022-08-19T22:53:22.431Z,30.38
2022-08-19T22:58:28.168Z,21.25
2022-08-19T23:03:31.560Z,15.40
2022-08-19T23:08:37.473Z,12.40
2022-08-19T23:13:41.775Z,12.10
2022-08-19T23:23:47.959Z,7.80
2022-08-19T23:29:09.274Z,9.65
2022-08-19T23:34:12.019Z,8.07
2022-08-19T23:39:14.640Z,7.63
2022-08-19T23:44:17.520Z,7.32
2022-08-19T23:49:21.029Z,7.95
2022-08-19T23:54:27.530Z,8.68
2022-08-19T23:59:46.456Z,7.95
